Time;durP1;ratioP1;P1;durP2;ratioP2;P2;SDS_P1;SDS_P2;PMS_P1;PMS_P2;Temp;Humidity;BMP_temperature;BMP_pressure;BME280_temperature;BME280_humidity;BME280_pressure;Samples;Min_cycle;Max_cycle;Signal;HPM_P1;HPM_P2
2022/02/25 00:02:19;;;;;;;0.50;0.50;;;7.70;33.00;;;;;;10455795;28;20641;-77
2022/02/25 00:07:23;;;;;;;0.60;0.60;;;7.60;33.00;;;;;;10456477;28;20715;-77
2022/02/25 00:12:26;;;;;;;0.53;0.50;;;7.70;33.00;;;;;;10455586;28;20229;-77
2022/02/25 00:17:31;;;;;;;1.17;0.60;;;7.70;32.60;;;;;;10456630;28;20312;-78
2022/02/25 00:22:34;;;;;;;0.87;0.53;;;7.80;33.00;;;;;;10456890;28;20246;-78
2022/02/25 00:27:39;;;;;;;0.53;0.50;;;7.80;32.40;;;;;;10456447;28;20312;-78
2022/02/25 00:32:43;;;;;;;1.07;0.50;;;7.80;32.30;;;;;;10459607;28;20957;-77
2022/02/25 00:37:46;;;;;;;1.07;0.60;;;7.90;32.30;;;;;;10465327;28;20315;-77
2022/02/25 00:42:51;;;;;;;0.50;0.50;;;7.90;31.90;;;;;;10464928;28;20260;-78
2022/02/25 00:47:55;;;;;;;1.13;0.50;;;7.80;32.30;;;;;;10465486;28;20747;-78
2022/02/25 00:52:58;;;;;;;0.50;0.50;;;7.80;32.30;;;;;;10466443;28;20776;-78
2022/02/25 00:58:02;;;;;;;0.77;0.60;;;7.80;32.20;;;;;;10464215;28;20315;-79
2022/02/25 01:03:06;;;;;;;1.00;0.50;;;7.90;32.10;;;;;;10464160;28;20300;-78
2022/02/25 01:08:10;;;;;;;0.63;0.63;;;7.80;32.20;;;;;;10464827;28;20678;-78
2022/02/25 01:13:14;;;;;;;0.60;0.60;;;7.90;31.90;;;;;;10465255;28;20228;-78
2022/02/25 01:18:18;;;;;;;0.70;0.60;;;7.90;32.20;;;;;;10465024;28;20239;-78
2022/02/25 01:23:22;;;;;;;1.30;0.50;;;7.90;32.10;;;;;;10465061;28;20312;-77
2022/02/25 01:28:25;;;;;;;2.10;0.50;;;7.90;31.80;;;;;;10462865;28;20308;-78
2022/02/25 01:33:30;;;;;;;0.60;0.60;;;7.90;31.80;;;;;;10462591;28;20239;-78
2022/02/25 01:38:33;;;;;;;1.27;0.60;;;7.80;32.20;;;;;;10462356;28;20610;-77
2022/02/25 01:43:37;;;;;;;0.57;0.50;;;7.80;32.00;;;;;;10461367;28;20221;-77
2022/02/25 01:48:41;;;;;;;0.90;0.70;;;7.80;32.10;;;;;;10461559;28;20232;-78
2022/02/25 01:53:45;;;;;;;1.50;0.60;;;7.70;32.30;;;;;;10460727;28;20224;-77
2022/02/25 01:58:48;;;;;;;0.50;0.50;;;7.70;32.00;;;;;;10461588;28;20229;-78
2022/02/25 02:03:55;;;;;;;0.60;0.60;;;7.70;32.10;;;;;;10461189;28;20709;-77
2022/02/25 02:08:58;;;;;;;0.70;0.70;;;7.60;32.70;;;;;;10459351;28;20227;-78
2022/02/25 02:14:12;;;;;;;0.60;0.60;;;7.60;32.50;;;;;;10458640;28;20221;-77
2022/02/25 02:19:18;;;;;;;0.50;0.50;;;7.50;33.20;;;;;;10461028;28;20233;-78
2022/02/25 02:24:24;;;;;;;0.77;0.70;;;7.50;32.80;;;;;;10459677;28;20235;-78
2022/02/25 02:29:27;;;;;;;0.60;0.60;;;7.40;32.90;;;;;;10459350;28;20229;-77
2022/02/25 02:34:30;;;;;;;0.70;0.70;;;7.30;32.80;;;;;;10458922;28;20304;-77
2022/02/25 02:39:36;;;;;;;1.07;0.60;;;7.30;33.00;;;;;;10458117;28;20707;-78
2022/02/25 02:44:39;;;;;;;0.70;0.70;;;7.30;33.20;;;;;;10458938;28;20221;-78
2022/02/25 02:49:42;;;;;;;0.90;0.60;;;7.20;33.00;;;;;;10459574;28;20568;-78
2022/02/25 02:54:47;;;;;;;0.70;0.70;;;7.20;33.00;;;;;;10458808;28;20236;-78
2022/02/25 02:59:50;;;;;;;1.17;0.80;;;7.30;33.30;;;;;;10455911;28;20705;-77
2022/02/25 03:04:54;;;;;;;0.60;0.60;;;7.30;33.00;;;;;;10457470;28;20232;-77
2022/02/25 03:09:58;;;;;;;0.87;0.70;;;7.30;33.10;;;;;;10457266;28;20709;-78
2022/02/25 03:15:02;;;;;;;1.03;0.60;;;7.40;33.20;;;;;;10457875;28;20256;-78
2022/02/25 03:20:07;;;;;;;0.70;0.70;;;7.40;33.00;;;;;;10457149;28;20235;-77
2022/02/25 03:25:13;;;;;;;1.50;0.90;;;7.30;33.30;;;;;;10456254;28;20241;-77
2022/02/25 03:30:17;;;;;;;0.60;0.60;;;7.30;33.40;;;;;;10457420;28;20293;-77
2022/02/25 03:35:20;;;;;;;1.10;0.80;;;7.20;33.30;;;;;;10457340;28;20225;-78
2022/02/25 03:40:27;;;;;;;1.43;0.90;;;7.20;33.20;;;;;;10458992;28;20585;-78
2022/02/25 03:45:30;;;;;;;0.70;0.70;;;7.20;33.40;;;;;;10458191;28;20327;-78
2022/02/25 03:50:34;;;;;;;1.90;1.00;;;7.20;33.10;;;;;;10457974;28;20231;-78
2022/02/25 03:55:38;;;;;;;1.10;1.00;;;7.20;32.90;;;;;;10457839;28;20808;-78
2022/02/25 04:00:41;;;;;;;0.93;0.80;;;7.20;32.90;;;;;;10460397;28;20244;-78
2022/02/25 04:05:44;;;;;;;1.10;0.90;;;7.20;32.50;;;;;;10461255;28;20241;-77
2022/02/25 04:10:49;;;;;;;1.63;1.07;;;7.20;32.50;;;;;;10459162;28;20313;-78
2022/02/25 04:15:52;;;;;;;0.97;0.90;;;7.20;32.60;;;;;;10460841;28;20289;-78
2022/02/25 04:20:56;;;;;;;1.13;1.00;;;7.30;32.60;;;;;;10458509;28;20229;-78
2022/02/25 04:26:01;;;;;;;1.37;1.00;;;7.30;32.60;;;;;;10460142;28;20229;-78
2022/02/25 04:31:06;;;;;;;0.90;0.90;;;7.20;32.50;;;;;;10459652;28;20304;-78
2022/02/25 04:36:09;;;;;;;2.93;1.20;;;7.20;32.50;;;;;;10458980;28;20602;-78
2022/02/25 04:41:14;;;;;;;1.27;1.00;;;7.10;32.30;;;;;;10458308;28;20283;-77
2022/02/25 04:46:18;;;;;;;1.17;1.03;;;7.00;32.40;;;;;;10459092;28;20301;-78
2022/02/25 04:51:22;;;;;;;2.37;1.30;;;7.00;32.30;;;;;;10458926;28;21637;-78
2022/02/25 04:56:26;;;;;;;1.77;1.10;;;6.90;32.30;;;;;;10459129;28;20229;-78
2022/02/25 05:01:31;;;;;;;3.37;1.10;;;6.90;32.10;;;;;;10454780;28;20224;-80
2022/02/25 05:06:34;;;;;;;1.30;1.10;;;6.90;31.80;;;;;;10459388;28;20236;-78
2022/02/25 05:11:39;;;;;;;2.80;1.27;;;6.90;31.80;;;;;;10463479;28;20225;-79
2022/02/25 05:22:04;;;;;;;2.30;1.20;;;6.80;31.60;;;;;;10460130;28;20291;-77
2022/02/25 05:27:08;;;;;;;2.60;1.20;;;6.80;31.50;;;;;;10459279;28;20721;-77
2022/02/25 05:32:11;;;;;;;2.00;1.17;;;6.80;31.40;;;;;;10457179;28;20224;-77
2022/02/25 05:37:16;;;;;;;2.20;1.10;;;6.70;31.40;;;;;;10458537;28;20324;-78
2022/02/25 05:42:22;;;;;;;1.50;1.20;;;6.60;31.50;;;;;;10461415;28;20724;-77
2022/02/25 05:47:26;;;;;;;1.47;1.20;;;6.50;31.60;;;;;;10459434;28;20232;-80
2022/02/25 05:52:29;;;;;;;1.87;1.40;;;6.50;31.50;;;;;;10459092;28;20224;-77
2022/02/25 05:57:34;;;;;;;1.60;1.50;;;6.50;31.40;;;;;;10451187;28;20240;-77
2022/02/25 06:02:37;;;;;;;2.47;1.40;;;6.40;31.60;;;;;;10447887;28;20235;-76
2022/02/25 06:07:41;;;;;;;3.10;1.57;;;6.40;31.60;;;;;;10446970;28;20257;-77
2022/02/25 06:12:46;;;;;;;1.40;1.30;;;6.40;31.50;;;;;;10445160;28;20221;-76
2022/02/25 06:17:51;;;;;;;3.17;1.47;;;6.30;31.60;;;;;;10452441;28;20229;-77
2022/02/25 06:22:55;;;;;;;2.13;1.30;;;6.30;31.80;;;;;;10453278;28;20618;-77
2022/02/25 06:27:59;;;;;;;1.83;1.60;;;6.20;31.70;;;;;;10445927;28;20752;-77
2022/02/25 06:33:03;;;;;;;4.10;2.27;;;6.20;31.70;;;;;;10452957;28;20225;-77
2022/02/25 06:38:07;;;;;;;4.93;3.63;;;6.10;31.60;;;;;;10452113;28;20762;-77
2022/02/25 06:43:11;;;;;;;2.90;1.50;;;6.10;31.60;;;;;;10451575;28;20240;-77
2022/02/25 06:48:14;;;;;;;2.37;1.83;;;6.00;31.70;;;;;;10451440;28;20228;-77
2022/02/25 06:53:18;;;;;;;3.87;2.10;;;6.00;31.80;;;;;;10451418;28;20235;-76
2022/02/25 06:58:23;;;;;;;5.27;2.13;;;5.90;31.80;;;;;;10453664;28;20237;-76
2022/02/25 07:03:26;;;;;;;1.60;1.50;;;5.90;32.00;;;;;;10451517;28;20221;-77
2022/02/25 07:08:29;;;;;;;1.87;1.20;;;5.90;32.10;;;;;;10438425;28;20278;-76
2022/02/25 07:13:34;;;;;;;1.43;1.30;;;5.90;31.90;;;;;;10448283;28;20221;-76
2022/02/25 07:18:37;;;;;;;2.37;1.20;;;5.90;32.20;;;;;;10444583;28;20225;-76
2022/02/25 07:23:40;;;;;;;2.30;1.30;;;5.90;32.40;;;;;;10442527;28;20233;-78
2022/02/25 07:28:45;;;;;;;2.10;1.30;;;6.00;32.50;;;;;;10454300;28;20224;-78
2022/02/25 07:33:48;;;;;;;3.53;1.33;;;6.20;32.40;;;;;;10454417;28;20229;-77
2022/02/25 07:38:51;;;;;;;3.13;1.30;;;6.20;32.30;;;;;;10443852;28;20599;-77
2022/02/25 07:43:56;;;;;;;3.97;1.20;;;6.30;32.00;;;;;;10448101;28;20249;-79
2022/02/25 07:48:59;;;;;;;3.23;1.30;;;6.40;32.20;;;;;;10448093;28;20232;-79
2022/02/25 07:54:04;;;;;;;2.00;1.23;;;6.50;32.30;;;;;;10453184;28;20235;-77
2022/02/25 07:59:09;;;;;;;2.90;1.50;;;6.50;32.30;;;;;;10449037;28;20304;-77
2022/02/25 08:04:12;;;;;;;1.83;1.30;;;6.60;32.00;;;;;;10455531;28;20225;-78
2022/02/25 08:09:15;;;;;;;2.80;1.43;;;6.70;32.10;;;;;;10455827;28;20229;-82
2022/02/25 08:14:19;;;;;;;3.47;1.00;;;6.70;32.10;;;;;;10454737;28;20225;-77
2022/02/25 08:19:23;;;;;;;2.10;1.67;;;6.80;32.00;;;;;;10455696;28;20599;-77
2022/02/25 08:24:26;;;;;;;3.47;1.80;;;6.90;32.30;;;;;;10461894;28;20221;-78
2022/02/25 08:29:32;;;;;;;2.90;2.33;;;6.90;32.30;;;;;;10454330;28;21172;-77
2022/02/25 08:34:35;;;;;;;2.27;1.20;;;7.10;32.40;;;;;;10455115;28;20220;-77
2022/02/25 08:39:39;;;;;;;2.43;1.30;;;7.20;32.10;;;;;;10451360;28;20246;-77
2022/02/25 08:44:45;;;;;;;2.73;1.43;;;7.40;32.30;;;;;;10446277;28;20580;-77
2022/02/25 08:49:48;;;;;;;3.00;1.23;;;7.50;32.20;;;;;;10447576;28;20228;-79
2022/02/25 08:54:51;;;;;;;2.73;1.10;;;7.70;32.20;;;;;;10456093;28;20247;-82
2022/02/25 08:59:56;;;;;;;2.67;1.30;;;7.80;32.20;;;;;;10464553;28;20316;-78
2022/02/25 09:05:01;;;;;;;2.40;1.43;;;8.00;31.50;;;;;;10463172;28;20229;-82
2022/02/25 09:10:06;;;;;;;1.97;1.13;;;8.00;31.60;;;;;;10459093;28;20638;-77
2022/02/25 09:15:14;;;;;;;3.50;1.47;;;8.10;31.20;;;;;;10461787;28;20232;-78
2022/02/25 09:20:17;;;;;;;5.43;1.60;;;8.20;31.30;;;;;;10459516;28;20225;-82
2022/02/25 09:25:22;;;;;;;4.77;1.43;;;8.20;30.90;;;;;;10466826;28;20236;-82
2022/02/25 09:30:26;;;;;;;2.67;1.23;;;8.20;30.70;;;;;;10464545;28;20224;-79
2022/02/25 09:35:30;;;;;;;3.27;1.40;;;8.20;30.70;;;;;;10456393;28;20786;-78
2022/02/25 09:40:33;;;;;;;3.83;1.50;;;8.10;30.80;;;;;;10456627;28;20235;-78
2022/02/25 09:45:38;;;;;;;2.73;1.20;;;8.10;31.10;;;;;;10460834;28;20224;-79
2022/02/25 09:50:43;;;;;;;3.27;1.33;;;8.10;30.90;;;;;;10459362;28;20564;-79
2022/02/25 09:55:46;;;;;;;8.70;4.50;;;8.10;30.60;;;;;;10458450;28;20217;-79
2022/02/25 10:00:51;;;;;;;3.30;2.20;;;8.10;31.00;;;;;;10453658;28;20225;-80
2022/02/25 10:05:54;;;;;;;2.97;1.43;;;8.20;30.90;;;;;;10455195;28;20232;-79
2022/02/25 10:10:59;;;;;;;5.03;1.53;;;8.30;30.90;;;;;;10454480;28;20224;-79
2022/02/25 10:16:10;;;;;;;3.77;1.50;;;8.40;30.70;;;;;;10456775;28;20235;-81
2022/02/25 10:21:16;;;;;;;3.70;1.30;;;8.40;30.30;;;;;;10460171;28;20217;-81
2022/02/25 10:26:22;;;;;;;3.20;1.30;;;8.40;30.00;;;;;;10452999;28;20264;-81
2022/02/25 10:31:30;;;;;;;2.00;1.20;;;8.40;29.50;;;;;;10460607;28;20224;-81
2022/02/25 10:36:47;;;;;;;2.80;1.70;;;8.40;29.60;;;;;;10455304;28;20229;-81
2022/02/25 10:42:06;;;;;;;3.37;1.00;;;8.40;29.40;;;;;;10454160;28;20225;-79
2022/02/25 10:47:16;;;;;;;3.47;1.20;;;8.40;29.40;;;;;;10445445;28;20227;-81
2022/02/25 10:52:29;;;;;;;2.43;1.10;;;8.40;29.20;;;;;;10445700;28;20600;-80
2022/02/25 10:57:36;;;;;;;3.27;1.20;;;8.40;29.40;;;;;;10446192;28;20237;-81
2022/02/25 11:02:47;;;;;;;2.90;1.47;;;8.40;29.00;;;;;;10448996;28;20288;-79
2022/02/25 11:07:54;;;;;;;5.77;1.30;;;8.40;29.00;;;;;;10451199;28;20249;-80
2022/02/25 11:13:01;;;;;;;3.97;1.30;;;8.40;29.30;;;;;;10436404;28;20917;-81
2022/02/25 11:18:07;;;;;;;2.73;1.10;;;8.50;29.50;;;;;;10439182;28;20797;-83
2022/02/25 11:23:11;;;;;;;1.30;0.90;;;8.70;29.30;;;;;;10434652;28;20752;-84
2022/02/25 11:28:16;;;;;;;2.63;1.07;;;9.00;29.40;;;;;;10433872;28;20229;-84
2022/02/25 11:33:24;;;;;;;2.00;1.13;;;9.20;29.60;;;;;;10436183;28;20735;-82
2022/02/25 11:38:29;;;;;;;2.53;1.00;;;9.50;28.70;;;;;;10435954;28;20234;-82
2022/02/25 11:43:42;;;;;;;3.13;1.23;;;9.70;29.00;;;;;;10436951;28;20231;-80
2022/02/25 11:48:50;;;;;;;2.17;1.10;;;9.90;29.00;;;;;;10441107;28;20233;-80
2022/02/25 11:54:24;;;;;;;3.17;1.40;;;10.00;27.80;;;;;;10440256;28;20347;-82
2022/02/25 12:00:07;;;;;;;1.80;1.20;;;10.10;27.00;;;;;;10437129;28;20681;-81
2022/02/25 12:05:17;;;;;;;4.40;1.50;;;10.30;27.30;;;;;;10442146;28;20229;-80
2022/02/25 12:10:22;;;;;;;5.43;1.50;;;10.30;27.30;;;;;;10432309;28;20239;-79
2022/02/25 12:15:34;;;;;;;2.60;1.20;;;10.40;27.90;;;;;;10446024;28;20466;-81
2022/02/25 12:20:44;;;;;;;5.50;1.50;;;10.50;26.80;;;;;;10443148;28;20248;-82
2022/02/25 12:25:50;;;;;;;3.07;1.37;;;10.40;27.10;;;;;;10441131;28;20312;-75
2022/02/25 12:30:57;;;;;;;2.70;1.30;;;10.40;27.70;;;;;;10443976;28;20318;-76
2022/02/25 12:36:05;;;;;;;2.70;1.23;;;10.50;27.40;;;;;;10447949;28;20320;-76
2022/02/25 12:41:12;;;;;;;2.53;1.17;;;10.40;26.60;;;;;;10444696;28;20216;-78
2022/02/25 12:46:17;;;;;;;3.97;1.50;;;10.30;26.90;;;;;;10444104;28;20225;-76
2022/02/25 12:51:23;;;;;;;2.53;1.20;;;10.20;27.20;;;;;;10448924;28;20224;-77
2022/02/25 12:56:28;;;;;;;2.70;1.10;;;10.10;27.10;;;;;;10446436;28;20720;-76
2022/02/25 13:01:36;;;;;;;3.67;1.30;;;10.00;26.90;;;;;;10446109;28;20700;-76
2022/02/25 13:06:42;;;;;;;4.47;1.50;;;10.10;27.30;;;;;;10443083;28;20221;-76
2022/02/25 13:11:48;;;;;;;2.13;1.30;;;9.90;27.70;;;;;;10450650;28;20225;-76
2022/02/25 13:17:06;;;;;;;2.97;1.40;;;9.80;27.70;;;;;;10442342;28;20229;-77
2022/02/25 13:22:15;;;;;;;3.23;1.57;;;9.80;27.60;;;;;;10447063;28;20266;-75
2022/02/25 13:27:38;;;;;;;4.90;2.30;;;9.90;27.60;;;;;;10443537;28;20228;-74
2022/02/25 13:32:46;;;;;;;4.73;1.97;;;9.80;27.30;;;;;;10447718;28;20939;-76
2022/02/25 13:37:57;;;;;;;4.83;2.00;;;9.80;27.60;;;;;;10444761;28;20232;-76
2022/02/25 13:43:01;;;;;;;2.37;1.50;;;9.70;27.50;;;;;;10445907;28;20231;-77
2022/02/25 13:53:38;;;;;;;4.47;2.93;;;9.70;27.40;;;;;;10450380;28;20236;-74
2022/02/25 13:58:41;;;;;;;5.07;2.37;;;9.50;27.50;;;;;;10445465;28;20231;-74
2022/02/25 14:03:45;;;;;;;4.50;2.33;;;9.40;28.50;;;;;;10447076;28;20231;-76
2022/02/25 14:08:54;;;;;;;3.13;1.60;;;9.40;28.40;;;;;;10439144;28;20279;-76
2022/02/25 14:13:57;;;;;;;5.47;3.30;;;9.40;28.00;;;;;;10439757;28;20216;-76
2022/02/25 14:19:15;;;;;;;3.80;1.90;;;9.50;28.00;;;;;;10441400;28;20239;-77
2022/02/25 14:24:31;;;;;;;2.20;1.40;;;9.50;27.70;;;;;;10446441;28;21033;-77
2022/02/25 14:29:34;;;;;;;3.50;1.30;;;9.50;27.30;;;;;;10439817;28;20219;-76
2022/02/25 14:34:40;;;;;;;3.17;1.53;;;9.50;27.90;;;;;;10441688;28;20220;-77
2022/02/25 14:39:46;;;;;;;3.33;1.90;;;9.50;27.90;;;;;;10438127;28;20713;-76
2022/02/25 14:44:50;;;;;;;4.87;1.50;;;9.60;27.80;;;;;;10441787;28;20224;-77
2022/02/25 14:49:53;;;;;;;3.00;1.80;;;9.60;27.80;;;;;;10439555;28;20282;-77
2022/02/25 14:54:58;;;;;;;2.60;1.50;;;9.70;27.80;;;;;;10431715;28;20243;-76
2022/02/25 15:00:01;;;;;;;1.73;1.20;;;9.60;26.90;;;;;;10434333;28;20233;-76
2022/02/25 15:05:05;;;;;;;4.50;1.80;;;9.60;26.80;;;;;;10435939;28;20217;-74
2022/02/25 15:10:10;;;;;;;3.67;1.50;;;9.60;27.10;;;;;;10435683;28;20997;-76
2022/02/25 15:15:17;;;;;;;2.93;1.77;;;9.60;26.90;;;;;;10435295;28;20236;-76
2022/02/25 15:20:20;;;;;;;2.77;1.50;;;9.50;27.00;;;;;;10448371;28;20257;-76
2022/02/25 15:25:25;;;;;;;3.10;1.27;;;9.50;27.10;;;;;;10445526;28;20224;-76
2022/02/25 15:30:28;;;;;;;2.10;1.07;;;9.40;26.90;;;;;;10440381;28;20239;-81
2022/02/25 15:35:32;;;;;;;3.90;1.30;;;9.40;27.20;;;;;;10439354;28;20232;-82
2022/02/25 15:40:36;;;;;;;2.30;1.03;;;9.30;27.30;;;;;;10437201;28;20225;-75
2022/02/25 15:45:40;;;;;;;5.10;1.90;;;9.30;27.00;;;;;;10455716;28;20224;-76
2022/02/25 15:50:43;;;;;;;3.10;1.23;;;9.30;27.20;;;;;;10442002;28;20692;-76
2022/02/25 15:55:47;;;;;;;3.00;1.13;;;9.20;27.20;;;;;;10444905;28;20224;-76
2022/02/25 16:00:51;;;;;;;2.17;1.10;;;9.20;27.20;;;;;;10437047;28;20723;-77
2022/02/25 16:05:56;;;;;;;4.93;1.57;;;9.10;27.40;;;;;;10435658;28;20225;-76
2022/02/25 16:11:01;;;;;;;3.47;1.57;;;9.10;27.50;;;;;;10439952;28;20220;-76
2022/02/25 16:16:06;;;;;;;3.83;1.83;;;9.10;27.50;;;;;;10444900;28;20735;-80
2022/02/25 16:21:10;;;;;;;3.27;1.47;;;9.00;27.60;;;;;;10447691;28;20705;-78
2022/02/25 16:26:15;;;;;;;3.37;1.20;;;9.00;27.70;;;;;;10442501;28;20460;-81
2022/02/25 16:31:19;;;;;;;2.13;1.10;;;8.90;27.70;;;;;;10445643;28;20474;-80
2022/02/25 16:36:22;;;;;;;1.63;1.03;;;8.90;27.90;;;;;;10447004;28;20237;-80
2022/02/25 16:41:27;;;;;;;2.20;1.70;;;8.90;27.90;;;;;;10445238;28;20757;-80
2022/02/25 16:46:30;;;;;;;3.70;1.70;;;8.90;28.00;;;;;;10448680;28;20740;-80
2022/02/25 16:51:34;;;;;;;3.33;2.07;;;8.80;28.00;;;;;;10445699;28;21109;-79
2022/02/25 16:56:40;;;;;;;7.57;2.23;;;8.80;28.00;;;;;;10448923;28;20702;-80
2022/02/25 17:01:43;;;;;;;2.50;1.43;;;8.90;28.00;;;;;;10446270;28;20228;-80
2022/02/25 17:06:47;;;;;;;2.90;1.60;;;8.80;28.30;;;;;;10447385;28;20229;-81
2022/02/25 17:11:52;;;;;;;3.73;1.50;;;8.60;29.10;;;;;;10452245;28;20229;-81
2022/02/25 17:16:55;;;;;;;2.13;1.40;;;8.40;29.70;;;;;;10452206;28;20248;-80
2022/02/25 17:21:58;;;;;;;1.50;1.40;;;8.00;29.70;;;;;;10455692;28;20228;-80
2022/02/25 17:27:04;;;;;;;1.30;1.20;;;7.70;29.90;;;;;;10461847;28;20693;-80
2022/02/25 17:32:08;;;;;;;2.63;1.50;;;7.50;30.40;;;;;;10459367;28;20582;-80
2022/02/25 17:37:20;;;;;;;2.00;1.20;;;7.30;30.50;;;;;;10462647;28;20591;-80
2022/02/25 17:42:25;;;;;;;1.83;1.57;;;7.10;30.30;;;;;;10457099;28;20232;-80
2022/02/25 17:47:28;;;;;;;2.93;2.37;;;7.10;30.80;;;;;;10461122;28;20239;-76
2022/02/25 17:52:32;;;;;;;2.47;2.00;;;7.00;30.60;;;;;;10452003;28;20225;-76
2022/02/25 17:57:36;;;;;;;6.00;2.50;;;6.90;30.80;;;;;;10448631;28;20228;-76
2022/02/25 18:02:40;;;;;;;7.37;4.53;;;6.70;31.10;;;;;;10445934;28;20224;-77
2022/02/25 18:07:44;;;;;;;5.37;3.33;;;6.60;31.20;;;;;;10451553;28;20335;-77
2022/02/25 18:12:49;;;;;;;4.23;3.17;;;6.50;31.40;;;;;;10445679;28;20221;-79
2022/02/25 18:17:52;;;;;;;2.40;2.10;;;6.50;32.00;;;;;;10450839;28;20693;-79
2022/02/25 18:22:56;;;;;;;2.93;1.40;;;6.60;32.00;;;;;;10453932;28;20758;-79
2022/02/25 18:28:01;;;;;;;3.20;2.47;;;6.70;31.80;;;;;;10442303;28;20698;-79
2022/02/25 18:33:04;;;;;;;4.30;3.00;;;6.70;32.10;;;;;;10448742;28;20248;-77
2022/02/25 18:38:07;;;;;;;2.77;2.40;;;6.80;32.20;;;;;;10449316;28;20229;-78
2022/02/25 18:43:12;;;;;;;3.07;2.10;;;6.90;32.30;;;;;;10447861;28;20229;-79
2022/02/25 18:48:15;;;;;;;2.37;2.17;;;7.00;32.40;;;;;;10447566;28;20604;-78
2022/02/25 18:53:18;;;;;;;3.10;2.00;;;7.10;32.30;;;;;;10450146;28;20228;-78
2022/02/25 18:58:25;;;;;;;3.50;2.10;;;7.10;32.00;;;;;;10449181;28;20683;-78
2022/02/25 19:03:29;;;;;;;2.83;2.27;;;7.20;32.50;;;;;;10449314;28;20344;-78
2022/02/25 19:08:32;;;;;;;3.43;2.70;;;7.20;32.20;;;;;;10448650;28;20701;-79
2022/02/25 19:13:37;;;;;;;4.73;4.27;;;7.30;32.20;;;;;;10445637;28;20297;-79
2022/02/25 19:18:40;;;;;;;6.00;4.77;;;7.40;32.70;;;;;;10449323;28;20216;-78
2022/02/25 19:23:43;;;;;;;4.90;3.60;;;7.40;32.10;;;;;;10443892;28;20225;-76
2022/02/25 19:28:48;;;;;;;7.73;4.90;;;7.30;32.00;;;;;;10448714;28;20274;-77
2022/02/25 19:33:54;;;;;;;5.47;2.87;;;7.30;32.20;;;;;;10450658;28;20245;-78
2022/02/25 19:38:57;;;;;;;3.10;2.40;;;7.20;32.00;;;;;;10458077;28;20853;-78
2022/02/25 19:44:03;;;;;;;2.80;1.73;;;7.10;32.10;;;;;;10457231;28;20235;-79
2022/02/25 19:49:06;;;;;;;3.90;1.83;;;7.00;32.50;;;;;;10441605;28;20307;-78
2022/02/25 19:54:09;;;;;;;2.83;1.97;;;7.00;32.30;;;;;;10454299;28;20216;-77
2022/02/25 19:59:14;;;;;;;2.77;2.03;;;6.90;32.30;;;;;;10454983;28;20235;-78
2022/02/25 20:04:31;;;;;;;3.23;1.87;;;6.90;32.30;;;;;;10446338;28;20635;-78
2022/02/25 20:09:37;;;;;;;4.10;1.80;;;6.80;32.20;;;;;;10451584;28;20236;-78
2022/02/25 20:14:41;;;;;;;2.57;1.60;;;6.80;32.90;;;;;;10450669;28;20228;-76
2022/02/25 20:19:45;;;;;;;4.20;2.20;;;6.70;32.70;;;;;;10451945;28;20228;-76
2022/02/25 20:24:48;;;;;;;3.50;2.47;;;6.60;32.60;;;;;;10449383;28;21292;-77
2022/02/25 20:29:53;;;;;;;3.17;1.90;;;6.50;32.70;;;;;;10442715;28;20228;-76
2022/02/25 20:34:56;;;;;;;3.53;1.70;;;6.40;33.20;;;;;;10449645;28;20241;-76
2022/02/25 20:39:59;;;;;;;3.00;2.00;;;6.40;33.20;;;;;;10443277;28;20229;-76
2022/02/25 20:45:05;;;;;;;3.33;1.57;;;6.40;33.10;;;;;;10446777;28;20312;-75
2022/02/25 20:50:10;;;;;;;3.63;1.97;;;6.40;33.60;;;;;;10446550;28;20228;-77
2022/02/25 20:55:16;;;;;;;4.03;2.00;;;6.40;33.40;;;;;;10455461;28;20260;-77
2022/02/25 21:00:34;;;;;;;5.17;2.37;;;6.40;33.20;;;;;;10454104;28;20235;-76
2022/02/25 21:05:38;;;;;;;1.80;1.70;;;6.30;33.60;;;;;;10452087;28;20248;-76
2022/02/25 21:10:41;;;;;;;5.13;1.70;;;6.30;33.30;;;;;;10452518;28;20221;-76
2022/02/25 21:15:46;;;;;;;4.17;1.80;;;6.30;33.20;;;;;;10454929;28;20227;-77
2022/02/25 21:20:49;;;;;;;4.27;1.90;;;6.20;33.70;;;;;;10454658;28;20270;-77
2022/02/25 21:25:53;;;;;;;3.77;1.77;;;6.20;33.60;;;;;;10452957;28;20226;-76
2022/02/25 21:30:58;;;;;;;3.83;2.00;;;6.30;33.80;;;;;;10451865;28;20251;-77
2022/02/25 21:36:01;;;;;;;3.53;2.07;;;6.20;34.20;;;;;;10448513;28;20227;-76
2022/02/25 21:41:05;;;;;;;2.40;1.83;;;6.20;33.90;;;;;;10449950;28;20584;-76
2022/02/25 21:46:10;;;;;;;7.27;2.97;;;6.20;34.10;;;;;;10450306;28;20727;-76
2022/02/25 21:51:14;;;;;;;3.43;2.50;;;6.20;35.20;;;;;;10451360;28;20236;-76
2022/02/25 21:56:17;;;;;;;2.90;2.40;;;6.20;34.40;;;;;;10448049;28;20241;-76
2022/02/25 22:01:22;;;;;;;3.27;2.23;;;6.10;34.30;;;;;;10448562;28;20609;-76
2022/02/25 22:06:31;;;;;;;2.87;2.57;;;6.10;34.90;;;;;;10453652;28;20235;-76
2022/02/25 22:11:37;;;;;;;2.73;2.40;;;6.10;34.50;;;;;;10454287;28;20264;-75
2022/02/25 22:16:42;;;;;;;3.10;2.30;;;6.10;34.50;;;;;;10446495;28;20252;-75
2022/02/25 22:21:45;;;;;;;4.23;2.33;;;6.10;34.80;;;;;;10444157;28;20229;-76
2022/02/25 22:26:49;;;;;;;5.50;2.50;;;6.10;34.50;;;;;;10442450;28;20780;-76
2022/02/25 22:31:53;;;;;;;5.70;2.40;;;6.10;34.70;;;;;;10440424;28;20225;-76
2022/02/25 22:36:57;;;;;;;4.07;2.00;;;6.00;35.20;;;;;;10440528;28;20236;-76
2022/02/25 22:42:01;;;;;;;2.20;1.90;;;6.10;34.90;;;;;;10442663;28;20225;-76
2022/02/25 22:47:06;;;;;;;4.73;1.97;;;6.10;35.10;;;;;;10441842;28;20231;-76
2022/02/25 23:02:54;;;;;;;3.37;2.07;;;6.20;35.30;;;;;;10440281;28;20315;-76
2022/02/25 23:07:58;;;;;;;3.73;2.30;;;6.20;35.80;;;;;;10442725;28;20712;-76
2022/02/25 23:13:07;;;;;;;3.00;2.00;;;6.20;35.30;;;;;;10440610;28;20244;-76
2022/02/25 23:18:12;;;;;;;4.17;2.57;;;6.20;35.20;;;;;;10447820;28;20232;-76
2022/02/25 23:23:16;;;;;;;3.73;2.47;;;6.20;36.00;;;;;;10446330;28;20233;-76
2022/02/25 23:28:19;;;;;;;3.10;2.20;;;6.10;35.40;;;;;;10442094;28;20608;-76
2022/02/25 23:33:24;;;;;;;3.67;2.57;;;6.20;35.60;;;;;;10443852;28;20240;-76
2022/02/25 23:38:28;;;;;;;3.50;2.50;;;6.20;35.90;;;;;;10445053;28;20233;-76
2022/02/25 23:43:31;;;;;;;3.20;2.63;;;6.20;35.90;;;;;;10444634;28;20225;-76
2022/02/25 23:48:36;;;;;;;2.70;2.50;;;6.30;35.80;;;;;;10446310;28;21022;-76
2022/02/25 23:53:39;;;;;;;4.33;2.80;;;6.30;36.30;;;;;;10443055;28;20220;-76
2022/02/25 23:58:42;;;;;;;3.70;2.80;;;6.30;36.00;;;;;;10444559;28;21069;-76
